sensor_id;sensor_type;location;lat;lon;timestamp;P1;durP1;ratioP1;P2;durP2;ratioP2
19800;SDS011;10060;48.274;12.214;2023-05-07T00:02:43;6.83;;;5.40;;
19800;SDS011;10060;48.274;12.214;2023-05-07T00:05:45;6.57;;;4.67;;
19800;SDS011;10060;48.274;12.214;2023-05-07T00:08:48;6.93;;;5.13;;
19800;SDS011;10060;48.274;12.214;2023-05-07T00:11:50;5.83;;;4.87;;
19800;SDS011;10060;48.274;12.214;2023-05-07T00:14:52;5.90;;;5.30;;
19800;SDS011;10060;48.274;12.214;2023-05-07T00:17:55;9.50;;;4.77;;
19800;SDS011;10060;48.274;12.214;2023-05-07T00:20:59;4.80;;;4.30;;
19800;SDS011;10060;48.274;12.214;2023-05-07T00:24:01;4.80;;;4.30;;
19800;SDS011;10060;48.274;12.214;2023-05-07T00:27:03;4.90;;;4.43;;
19800;SDS011;10060;48.274;12.214;2023-05-07T00:30:06;8.00;;;5.53;;
19800;SDS011;10060;48.274;12.214;2023-05-07T00:33:09;5.97;;;5.13;;
19800;SDS011;10060;48.274;12.214;2023-05-07T00:36:11;9.30;;;5.17;;
19800;SDS011;10060;48.274;12.214;2023-05-07T00:39:13;6.70;;;5.27;;
19800;SDS011;10060;48.274;12.214;2023-05-07T00:42:16;6.07;;;5.40;;
19800;SDS011;10060;48.274;12.214;2023-05-07T00:45:18;6.30;;;5.10;;
19800;SDS011;10060;48.274;12.214;2023-05-07T00:48:21;6.07;;;5.13;;
19800;SDS011;10060;48.274;12.214;2023-05-07T00:51:24;5.60;;;5.10;;
19800;SDS011;10060;48.274;12.214;2023-05-07T00:54:27;5.97;;;4.40;;
19800;SDS011;10060;48.274;12.214;2023-05-07T00:57:29;5.67;;;4.67;;
19800;SDS011;10060;48.274;12.214;2023-05-07T01:00:34;5.83;;;4.87;;
19800;SDS011;10060;48.274;12.214;2023-05-07T01:03:38;5.83;;;4.93;;
19800;SDS011;10060;48.274;12.214;2023-05-07T01:06:40;7.03;;;5.17;;
19800;SDS011;10060;48.274;12.214;2023-05-07T01:09:42;5.83;;;4.83;;
19800;SDS011;10060;48.274;12.214;2023-05-07T01:12:44;5.70;;;4.90;;
19800;SDS011;10060;48.274;12.214;2023-05-07T01:15:47;5.93;;;5.13;;
19800;SDS011;10060;48.274;12.214;2023-05-07T01:18:50;6.27;;;5.63;;
19800;SDS011;10060;48.274;12.214;2023-05-07T01:21:52;6.13;;;5.53;;
19800;SDS011;10060;48.274;12.214;2023-05-07T01:25:00;5.03;;;4.53;;
19800;SDS011;10060;48.274;12.214;2023-05-07T01:28:02;5.37;;;4.87;;
19800;SDS011;10060;48.274;12.214;2023-05-07T01:31:05;5.23;;;4.70;;
19800;SDS011;10060;48.274;12.214;2023-05-07T01:34:08;7.13;;;5.33;;
19800;SDS011;10060;48.274;12.214;2023-05-07T01:37:11;6.57;;;5.27;;
19800;SDS011;10060;48.274;12.214;2023-05-07T01:40:15;5.97;;;5.37;;
19800;SDS011;10060;48.274;12.214;2023-05-07T01:43:17;7.23;;;5.73;;
19800;SDS011;10060;48.274;12.214;2023-05-07T01:46:20;6.30;;;5.33;;
19800;SDS011;10060;48.274;12.214;2023-05-07T01:49:23;6.87;;;5.03;;
19800;SDS011;10060;48.274;12.214;2023-05-07T01:52:25;6.13;;;5.53;;
19800;SDS011;10060;48.274;12.214;2023-05-07T01:55:30;7.77;;;5.80;;
19800;SDS011;10060;48.274;12.214;2023-05-07T01:58:32;6.97;;;6.20;;
19800;SDS011;10060;48.274;12.214;2023-05-07T02:01:34;6.50;;;5.30;;
19800;SDS011;10060;48.274;12.214;2023-05-07T02:04:36;4.90;;;4.40;;
19800;SDS011;10060;48.274;12.214;2023-05-07T02:07:38;5.17;;;4.67;;
19800;SDS011;10060;48.274;12.214;2023-05-07T02:10:42;5.07;;;4.57;;
19800;SDS011;10060;48.274;12.214;2023-05-07T02:13:44;4.93;;;4.43;;
19800;SDS011;10060;48.274;12.214;2023-05-07T02:16:46;6.97;;;4.87;;
19800;SDS011;10060;48.274;12.214;2023-05-07T02:19:48;7.03;;;5.23;;
19800;SDS011;10060;48.274;12.214;2023-05-07T02:22:50;6.97;;;4.87;;
19800;SDS011;10060;48.274;12.214;2023-05-07T02:25:54;5.37;;;4.43;;
19800;SDS011;10060;48.274;12.214;2023-05-07T02:28:56;5.80;;;5.03;;
19800;SDS011;10060;48.274;12.214;2023-05-07T02:31:58;8.00;;;4.50;;
19800;SDS011;10060;48.274;12.214;2023-05-07T02:35:00;7.03;;;5.03;;
19800;SDS011;10060;48.274;12.214;2023-05-07T02:38:02;6.73;;;5.00;;
19800;SDS011;10060;48.274;12.214;2023-05-07T02:41:05;6.27;;;5.20;;
19800;SDS011;10060;48.274;12.214;2023-05-07T02:44:08;9.23;;;5.23;;
19800;SDS011;10060;48.274;12.214;2023-05-07T02:47:10;7.77;;;5.80;;
19800;SDS011;10060;48.274;12.214;2023-05-07T02:50:13;6.33;;;5.23;;
19800;SDS011;10060;48.274;12.214;2023-05-07T02:53:15;6.07;;;5.47;;
19800;SDS011;10060;48.274;12.214;2023-05-07T02:56:19;6.67;;;4.83;;
19800;SDS011;10060;48.274;12.214;2023-05-07T02:59:21;6.90;;;4.97;;
19800;SDS011;10060;48.274;12.214;2023-05-07T03:02:23;6.93;;;5.20;;
19800;SDS011;10060;48.274;12.214;2023-05-07T03:05:25;5.87;;;5.10;;
19800;SDS011;10060;48.274;12.214;2023-05-07T03:08:27;7.57;;;5.67;;
19800;SDS011;10060;48.274;12.214;2023-05-07T03:11:31;6.60;;;5.67;;
19800;SDS011;10060;48.274;12.214;2023-05-07T03:14:33;7.00;;;6.00;;
19800;SDS011;10060;48.274;12.214;2023-05-07T03:17:35;6.37;;;5.60;;
19800;SDS011;10060;48.274;12.214;2023-05-07T03:20:37;8.63;;;5.67;;
19800;SDS011;10060;48.274;12.214;2023-05-07T03:23:39;6.63;;;5.63;;
19800;SDS011;10060;48.274;12.214;2023-05-07T03:26:43;8.33;;;5.43;;
19800;SDS011;10060;48.274;12.214;2023-05-07T03:29:45;8.10;;;5.73;;
19800;SDS011;10060;48.274;12.214;2023-05-07T03:32:47;7.47;;;5.27;;
19800;SDS011;10060;48.274;12.214;2023-05-07T03:35:49;7.67;;;5.87;;
19800;SDS011;10060;48.274;12.214;2023-05-07T03:38:51;7.17;;;5.50;;
19800;SDS011;10060;48.274;12.214;2023-05-07T03:41:54;6.33;;;5.73;;
19800;SDS011;10060;48.274;12.214;2023-05-07T03:44:57;6.63;;;5.90;;
19800;SDS011;10060;48.274;12.214;2023-05-07T03:47:59;5.93;;;5.17;;
19800;SDS011;10060;48.274;12.214;2023-05-07T03:51:01;6.13;;;5.47;;
19800;SDS011;10060;48.274;12.214;2023-05-07T03:54:03;5.57;;;4.83;;
19800;SDS011;10060;48.274;12.214;2023-05-07T03:57:06;7.13;;;5.53;;
19800;SDS011;10060;48.274;12.214;2023-05-07T04:00:09;6.63;;;5.60;;
19800;SDS011;10060;48.274;12.214;2023-05-07T04:03:11;6.53;;;5.37;;
19800;SDS011;10060;48.274;12.214;2023-05-07T04:06:15;9.07;;;6.20;;
19800;SDS011;10060;48.274;12.214;2023-05-07T04:09:17;6.97;;;6.23;;
19800;SDS011;10060;48.274;12.214;2023-05-07T04:12:21;8.90;;;5.40;;
19800;SDS011;10060;48.274;12.214;2023-05-07T04:15:23;6.47;;;5.70;;
19800;SDS011;10060;48.274;12.214;2023-05-07T04:18:25;7.57;;;5.57;;
19800;SDS011;10060;48.274;12.214;2023-05-07T04:21:27;6.33;;;5.20;;
19800;SDS011;10060;48.274;12.214;2023-05-07T04:24:31;8.03;;;5.50;;
19800;SDS011;10060;48.274;12.214;2023-05-07T04:27:35;4.77;;;4.27;;
19800;SDS011;10060;48.274;12.214;2023-05-07T04:30:37;7.03;;;4.90;;
19800;SDS011;10060;48.274;12.214;2023-05-07T04:33:39;5.10;;;4.60;;
19800;SDS011;10060;48.274;12.214;2023-05-07T04:36:41;5.90;;;4.70;;
19800;SDS011;10060;48.274;12.214;2023-05-07T04:39:44;5.63;;;4.70;;
19800;SDS011;10060;48.274;12.214;2023-05-07T04:42:47;10.77;;;5.07;;
19800;SDS011;10060;48.274;12.214;2023-05-07T04:45:49;7.30;;;5.30;;
19800;SDS011;10060;48.274;12.214;2023-05-07T04:48:52;9.03;;;5.53;;
19800;SDS011;10060;48.274;12.214;2023-05-07T04:51:54;9.33;;;5.40;;
19800;SDS011;10060;48.274;12.214;2023-05-07T04:54:56;8.67;;;5.83;;
19800;SDS011;10060;48.274;12.214;2023-05-07T04:57:59;9.63;;;5.67;;
19800;SDS011;10060;48.274;12.214;2023-05-07T05:01:02;5.90;;;5.30;;
19800;SDS011;10060;48.274;12.214;2023-05-07T05:04:04;7.10;;;6.10;;
19800;SDS011;10060;48.274;12.214;2023-05-07T05:07:06;6.63;;;5.30;;
19800;SDS011;10060;48.274;12.214;2023-05-07T05:10:09;5.93;;;5.33;;
19800;SDS011;10060;48.274;12.214;2023-05-07T05:13:12;7.80;;;6.33;;
19800;SDS011;10060;48.274;12.214;2023-05-07T05:16:14;8.57;;;6.33;;
19800;SDS011;10060;48.274;12.214;2023-05-07T05:19:16;8.13;;;6.67;;
19800;SDS011;10060;48.274;12.214;2023-05-07T05:22:18;10.17;;;7.20;;
19800;SDS011;10060;48.274;12.214;2023-05-07T05:25:21;8.50;;;7.60;;
19800;SDS011;10060;48.274;12.214;2023-05-07T05:28:24;9.70;;;7.40;;
19800;SDS011;10060;48.274;12.214;2023-05-07T05:31:27;9.70;;;7.70;;
19800;SDS011;10060;48.274;12.214;2023-05-07T05:34:29;7.70;;;6.60;;
19800;SDS011;10060;48.274;12.214;2023-05-07T05:37:33;10.33;;;7.30;;
19800;SDS011;10060;48.274;12.214;2023-05-07T05:40:35;10.70;;;7.50;;
19800;SDS011;10060;48.274;12.214;2023-05-07T05:43:38;10.47;;;7.53;;
19800;SDS011;10060;48.274;12.214;2023-05-07T05:46:40;12.80;;;7.33;;
19800;SDS011;10060;48.274;12.214;2023-05-07T05:49:43;9.77;;;7.80;;
19800;SDS011;10060;48.274;12.214;2023-05-07T05:52:45;9.47;;;7.93;;
19800;SDS011;10060;48.274;12.214;2023-05-07T05:55:47;12.27;;;8.63;;
19800;SDS011;10060;48.274;12.214;2023-05-07T05:58:50;11.20;;;8.03;;
19800;SDS011;10060;48.274;12.214;2023-05-07T06:01:53;13.93;;;9.30;;
19800;SDS011;10060;48.274;12.214;2023-05-07T06:04:55;11.30;;;8.83;;
19800;SDS011;10060;48.274;12.214;2023-05-07T06:07:57;11.90;;;8.57;;
19800;SDS011;10060;48.274;12.214;2023-05-07T06:10:59;10.00;;;8.77;;
19800;SDS011;10060;48.274;12.214;2023-05-07T06:14:04;12.07;;;9.27;;
19800;SDS011;10060;48.274;12.214;2023-05-07T06:17:06;14.50;;;8.73;;
19800;SDS011;10060;48.274;12.214;2023-05-07T06:20:08;13.00;;;8.50;;
19800;SDS011;10060;48.274;12.214;2023-05-07T06:23:11;10.30;;;8.33;;
19800;SDS011;10060;48.274;12.214;2023-05-07T06:26:13;14.93;;;8.73;;
19800;SDS011;10060;48.274;12.214;2023-05-07T06:29:16;10.02;;;8.23;;
19800;SDS011;10060;48.274;12.214;2023-05-07T06:32:18;11.13;;;8.65;;
19800;SDS011;10060;48.274;12.214;2023-05-07T06:35:20;12.38;;;8.75;;
19800;SDS011;10060;48.274;12.214;2023-05-07T06:38:23;10.55;;;8.23;;
19800;SDS011;10060;48.274;12.214;2023-05-07T06:41:25;9.95;;;7.65;;
19800;SDS011;10060;48.274;12.214;2023-05-07T06:44:28;8.48;;;7.55;;
19800;SDS011;10060;48.274;12.214;2023-05-07T06:47:30;9.60;;;7.95;;
19800;SDS011;10060;48.274;12.214;2023-05-07T06:50:32;11.65;;;7.40;;
19800;SDS011;10060;48.274;12.214;2023-05-07T06:53:34;14.75;;;7.60;;
19800;SDS011;10060;48.274;12.214;2023-05-07T06:56:37;8.93;;;6.32;;
19800;SDS011;10060;48.274;12.214;2023-05-07T06:59:40;10.52;;;6.72;;
19800;SDS011;10060;48.274;12.214;2023-05-07T07:02:42;14.25;;;7.25;;
19800;SDS011;10060;48.274;12.214;2023-05-07T07:05:44;10.70;;;7.00;;
19800;SDS011;10060;48.274;12.214;2023-05-07T07:08:46;8.20;;;7.35;;
19800;SDS011;10060;48.274;12.214;2023-05-07T07:11:48;8.32;;;6.78;;
19800;SDS011;10060;48.274;12.214;2023-05-07T07:14:52;11.93;;;7.28;;
19800;SDS011;10060;48.274;12.214;2023-05-07T07:17:54;13.95;;;6.75;;
19800;SDS011;10060;48.274;12.214;2023-05-07T07:20:56;9.50;;;7.53;;
19800;SDS011;10060;48.274;12.214;2023-05-07T07:23:59;8.40;;;7.32;;
19800;SDS011;10060;48.274;12.214;2023-05-07T07:27:01;9.25;;;7.22;;
19800;SDS011;10060;48.274;12.214;2023-05-07T07:30:05;11.48;;;8.27;;
19800;SDS011;10060;48.274;12.214;2023-05-07T07:33:07;10.35;;;8.55;;
19800;SDS011;10060;48.274;12.214;2023-05-07T07:36:09;10.57;;;8.32;;
19800;SDS011;10060;48.274;12.214;2023-05-07T07:39:11;11.38;;;8.38;;
19800;SDS011;10060;48.274;12.214;2023-05-07T07:42:13;11.10;;;8.45;;
19800;SDS011;10060;48.274;12.214;2023-05-07T07:45:17;11.18;;;8.40;;
19800;SDS011;10060;48.274;12.214;2023-05-07T07:48:19;11.27;;;8.65;;
19800;SDS011;10060;48.274;12.214;2023-05-07T07:51:21;11.05;;;9.02;;
19800;SDS011;10060;48.274;12.214;2023-05-07T07:54:23;10.27;;;8.63;;
19800;SDS011;10060;48.274;12.214;2023-05-07T07:57:25;10.65;;;8.45;;
19800;SDS011;10060;48.274;12.214;2023-05-07T08:00:29;10.30;;;8.25;;
19800;SDS011;10060;48.274;12.214;2023-05-07T08:03:31;9.88;;;8.68;;
19800;SDS011;10060;48.274;12.214;2023-05-07T08:06:33;12.23;;;9.02;;
19800;SDS011;10060;48.274;12.214;2023-05-07T08:09:36;10.73;;;8.70;;
19800;SDS011;10060;48.274;12.214;2023-05-07T08:12:38;9.10;;;8.20;;
19800;SDS011;10060;48.274;12.214;2023-05-07T08:15:41;12.07;;;8.63;;
19800;SDS011;10060;48.274;12.214;2023-05-07T08:18:43;9.10;;;7.85;;
19800;SDS011;10060;48.274;12.214;2023-05-07T08:21:46;10.65;;;8.95;;
19800;SDS011;10060;48.274;12.214;2023-05-07T08:24:48;9.40;;;7.70;;
19800;SDS011;10060;48.274;12.214;2023-05-07T08:27:51;8.80;;;7.78;;
19800;SDS011;10060;48.274;12.214;2023-05-07T08:30:55;9.10;;;6.10;;
19800;SDS011;10060;48.274;12.214;2023-05-07T08:33:59;8.60;;;6.15;;
19800;SDS011;10060;48.274;12.214;2023-05-07T08:37:01;9.90;;;7.10;;
19800;SDS011;10060;48.274;12.214;2023-05-07T08:40:04;7.82;;;7.03;;
19800;SDS011;10060;48.274;12.214;2023-05-07T08:43:07;8.93;;;6.80;;
19800;SDS011;10060;48.274;12.214;2023-05-07T08:46:11;8.15;;;6.80;;
19800;SDS011;10060;48.274;12.214;2023-05-07T08:49:14;9.50;;;7.65;;
19800;SDS011;10060;48.274;12.214;2023-05-07T08:52:17;13.70;;;7.38;;
19800;SDS011;10060;48.274;12.214;2023-05-07T08:55:20;9.63;;;7.88;;
19800;SDS011;10060;48.274;12.214;2023-05-07T08:58:22;10.68;;;7.20;;
19800;SDS011;10060;48.274;12.214;2023-05-07T09:01:25;9.32;;;8.10;;
19800;SDS011;10060;48.274;12.214;2023-05-07T09:04:28;9.23;;;6.97;;
19800;SDS011;10060;48.274;12.214;2023-05-07T09:07:31;10.65;;;8.70;;
19800;SDS011;10060;48.274;12.214;2023-05-07T09:10:33;10.23;;;7.45;;
19800;SDS011;10060;48.274;12.214;2023-05-07T09:13:36;11.82;;;8.32;;
19800;SDS011;10060;48.274;12.214;2023-05-07T09:16:40;9.15;;;6.95;;
19800;SDS011;10060;48.274;12.214;2023-05-07T09:19:43;8.90;;;7.55;;
19800;SDS011;10060;48.274;12.214;2023-05-07T09:22:46;9.23;;;7.53;;
19800;SDS011;10060;48.274;12.214;2023-05-07T09:25:48;10.50;;;7.13;;
19800;SDS011;10060;48.274;12.214;2023-05-07T09:28:50;9.82;;;8.00;;
19800;SDS011;10060;48.274;12.214;2023-05-07T09:31:54;8.07;;;6.88;;
19800;SDS011;10060;48.274;12.214;2023-05-07T09:34:56;10.32;;;7.97;;
19800;SDS011;10060;48.274;12.214;2023-05-07T09:37:59;8.38;;;7.47;;
19800;SDS011;10060;48.274;12.214;2023-05-07T09:41:02;9.98;;;7.95;;
19800;SDS011;10060;48.274;12.214;2023-05-07T09:44:04;6.88;;;6.18;;
19800;SDS011;10060;48.274;12.214;2023-05-07T09:47:08;8.95;;;6.03;;
19800;SDS011;10060;48.274;12.214;2023-05-07T09:50:12;7.43;;;6.72;;
19800;SDS011;10060;48.274;12.214;2023-05-07T09:53:14;7.85;;;6.47;;
19800;SDS011;10060;48.274;12.214;2023-05-07T09:56:17;9.20;;;6.20;;
19800;SDS011;10060;48.274;12.214;2023-05-07T09:59:21;8.77;;;6.10;;
19800;SDS011;10060;48.274;12.214;2023-05-07T10:02:24;6.53;;;5.93;;
19800;SDS011;10060;48.274;12.214;2023-05-07T10:05:27;7.55;;;5.68;;
19800;SDS011;10060;48.274;12.214;2023-05-07T10:08:29;5.28;;;4.78;;
19800;SDS011;10060;48.274;12.214;2023-05-07T10:11:32;5.70;;;5.00;;
19800;SDS011;10060;48.274;12.214;2023-05-07T10:14:35;8.50;;;5.88;;
19800;SDS011;10060;48.274;12.214;2023-05-07T10:17:39;7.60;;;5.90;;
19800;SDS011;10060;48.274;12.214;2023-05-07T10:20:41;7.90;;;5.22;;
19800;SDS011;10060;48.274;12.214;2023-05-07T10:23:44;5.25;;;4.72;;
19800;SDS011;10060;48.274;12.214;2023-05-07T10:26:48;10.10;;;5.25;;
19800;SDS011;10060;48.274;12.214;2023-05-07T10:29:53;7.15;;;5.28;;
19800;SDS011;10060;48.274;12.214;2023-05-07T10:32:59;6.18;;;5.50;;
19800;SDS011;10060;48.274;12.214;2023-05-07T10:36:05;7.47;;;5.57;;
19800;SDS011;10060;48.274;12.214;2023-05-07T10:39:08;6.75;;;5.25;;
19800;SDS011;10060;48.274;12.214;2023-05-07T10:42:10;5.78;;;4.63;;
19800;SDS011;10060;48.274;12.214;2023-05-07T10:45:13;7.68;;;4.40;;
19800;SDS011;10060;48.274;12.214;2023-05-07T10:48:18;5.75;;;5.13;;
19800;SDS011;10060;48.274;12.214;2023-05-07T10:51:20;5.30;;;4.80;;
19800;SDS011;10060;48.274;12.214;2023-05-07T10:54:23;7.47;;;5.10;;
19800;SDS011;10060;48.274;12.214;2023-05-07T11:00:45;8.82;;;5.03;;
19800;SDS011;10060;48.274;12.214;2023-05-07T11:10:22;5.35;;;4.57;;
19800;SDS011;10060;48.274;12.214;2023-05-07T11:13:43;4.70;;;4.30;;
19800;SDS011;10060;48.274;12.214;2023-05-07T11:16:45;6.80;;;4.95;;
19800;SDS011;10060;48.274;12.214;2023-05-07T11:19:48;6.20;;;4.93;;
19800;SDS011;10060;48.274;12.214;2023-05-07T11:22:50;20.45;;;6.18;;
19800;SDS011;10060;48.274;12.214;2023-05-07T11:25:59;5.53;;;4.70;;
19800;SDS011;10060;48.274;12.214;2023-05-07T11:29:01;5.82;;;4.60;;
19800;SDS011;10060;48.274;12.214;2023-05-07T11:32:03;5.50;;;4.57;;
19800;SDS011;10060;48.274;12.214;2023-05-07T11:35:06;10.23;;;4.10;;
19800;SDS011;10060;48.274;12.214;2023-05-07T11:38:08;5.57;;;4.85;;
19800;SDS011;10060;48.274;12.214;2023-05-07T11:41:11;4.43;;;3.70;;
19800;SDS011;10060;48.274;12.214;2023-05-07T11:44:13;3.83;;;3.30;;
19800;SDS011;10060;48.274;12.214;2023-05-07T11:47:19;4.57;;;3.30;;
19800;SDS011;10060;48.274;12.214;2023-05-07T11:50:21;5.13;;;3.60;;
19800;SDS011;10060;48.274;12.214;2023-05-07T11:53:24;7.40;;;3.50;;
19800;SDS011;10060;48.274;12.214;2023-05-07T11:56:27;3.92;;;3.40;;
19800;SDS011;10060;48.274;12.214;2023-05-07T11:59:29;3.58;;;3.22;;
19800;SDS011;10060;48.274;12.214;2023-05-07T12:02:31;3.85;;;2.97;;
19800;SDS011;10060;48.274;12.214;2023-05-07T12:05:34;6.00;;;3.92;;
19800;SDS011;10060;48.274;12.214;2023-05-07T12:08:37;4.07;;;3.50;;
19800;SDS011;10060;48.274;12.214;2023-05-07T12:11:41;6.80;;;3.60;;
19800;SDS011;10060;48.274;12.214;2023-05-07T12:14:47;26.90;;;4.78;;
19800;SDS011;10060;48.274;12.214;2023-05-07T12:17:50;4.05;;;3.63;;
19800;SDS011;10060;48.274;12.214;2023-05-07T12:20:52;6.65;;;3.20;;
19800;SDS011;10060;48.274;12.214;2023-05-07T12:23:54;4.15;;;3.45;;
19800;SDS011;10060;48.274;12.214;2023-05-07T12:26:58;4.85;;;2.78;;
19800;SDS011;10060;48.274;12.214;2023-05-07T12:30:01;5.43;;;3.42;;
19800;SDS011;10060;48.274;12.214;2023-05-07T12:33:04;5.05;;;3.08;;
19800;SDS011;10060;48.274;12.214;2023-05-07T12:36:06;2.95;;;2.40;;
19800;SDS011;10060;48.274;12.214;2023-05-07T12:39:08;3.10;;;2.70;;
19800;SDS011;10060;48.274;12.214;2023-05-07T12:42:15;3.88;;;3.22;;
19800;SDS011;10060;48.274;12.214;2023-05-07T12:45:17;4.15;;;3.03;;
19800;SDS011;10060;48.274;12.214;2023-05-07T12:48:20;4.05;;;2.92;;
19800;SDS011;10060;48.274;12.214;2023-05-07T12:51:22;2.80;;;2.42;;
19800;SDS011;10060;48.274;12.214;2023-05-07T12:54:27;3.13;;;2.78;;
19800;SDS011;10060;48.274;12.214;2023-05-07T12:57:31;3.58;;;2.60;;
19800;SDS011;10060;48.274;12.214;2023-05-07T13:00:39;3.47;;;2.97;;
19800;SDS011;10060;48.274;12.214;2023-05-07T13:03:47;3.90;;;2.72;;
19800;SDS011;10060;48.274;12.214;2023-05-07T13:06:50;6.30;;;2.28;;
19800;SDS011;10060;48.274;12.214;2023-05-07T13:09:52;4.13;;;2.90;;
19800;SDS011;10060;48.274;12.214;2023-05-07T13:12:55;3.22;;;2.65;;
19800;SDS011;10060;48.274;12.214;2023-05-07T13:15:58;3.72;;;2.92;;
19800;SDS011;10060;48.274;12.214;2023-05-07T13:19:00;4.68;;;2.42;;
19800;SDS011;10060;48.274;12.214;2023-05-07T13:22:02;2.17;;;1.98;;
19800;SDS011;10060;48.274;12.214;2023-05-07T13:25:04;2.92;;;2.17;;
19800;SDS011;10060;48.274;12.214;2023-05-07T13:28:08;2.33;;;1.80;;
19800;SDS011;10060;48.274;12.214;2023-05-07T13:31:10;2.15;;;1.95;;
19800;SDS011;10060;48.274;12.214;2023-05-07T13:34:12;4.03;;;1.88;;
19800;SDS011;10060;48.274;12.214;2023-05-07T13:37:14;2.10;;;1.90;;
19800;SDS011;10060;48.274;12.214;2023-05-07T13:40:16;6.88;;;1.92;;
19800;SDS011;10060;48.274;12.214;2023-05-07T13:43:20;2.03;;;1.85;;
19800;SDS011;10060;48.274;12.214;2023-05-07T13:46:22;2.70;;;2.38;;
19800;SDS011;10060;48.274;12.214;2023-05-07T13:49:24;3.03;;;2.00;;
19800;SDS011;10060;48.274;12.214;2023-05-07T13:52:26;4.03;;;1.92;;
19800;SDS011;10060;48.274;12.214;2023-05-07T13:55:29;4.22;;;2.17;;
19800;SDS011;10060;48.274;12.214;2023-05-07T13:58:32;1.90;;;1.70;;
19800;SDS011;10060;48.274;12.214;2023-05-07T14:01:36;2.88;;;2.30;;
19800;SDS011;10060;48.274;12.214;2023-05-07T14:04:38;1.70;;;1.60;;
19800;SDS011;10060;48.274;12.214;2023-05-07T14:07:40;2.17;;;1.90;;
19800;SDS011;10060;48.274;12.214;2023-05-07T14:10:42;1.80;;;1.70;;
19800;SDS011;10060;48.274;12.214;2023-05-07T14:13:46;2.67;;;1.73;;
19800;SDS011;10060;48.274;12.214;2023-05-07T14:16:48;3.17;;;1.75;;
19800;SDS011;10060;48.274;12.214;2023-05-07T14:19:50;2.05;;;1.85;;
19800;SDS011;10060;48.274;12.214;2023-05-07T14:22:53;3.78;;;2.00;;
19800;SDS011;10060;48.274;12.214;2023-05-07T14:25:55;3.08;;;1.85;;
19800;SDS011;10060;48.274;12.214;2023-05-07T14:28:59;3.85;;;2.00;;
19800;SDS011;10060;48.274;12.214;2023-05-07T14:32:01;2.53;;;1.70;;
19800;SDS011;10060;48.274;12.214;2023-05-07T14:35:03;1.88;;;1.73;;
19800;SDS011;10060;48.274;12.214;2023-05-07T14:38:06;2.67;;;2.00;;
19800;SDS011;10060;48.274;12.214;2023-05-07T14:41:08;2.03;;;1.70;;
19800;SDS011;10060;48.274;12.214;2023-05-07T14:44:11;1.73;;;1.63;;
19800;SDS011;10060;48.274;12.214;2023-05-07T14:47:13;2.53;;;2.20;;
19800;SDS011;10060;48.274;12.214;2023-05-07T14:50:15;2.58;;;1.83;;
19800;SDS011;10060;48.274;12.214;2023-05-07T14:53:18;4.22;;;1.90;;
19800;SDS011;10060;48.274;12.214;2023-05-07T14:56:20;2.30;;;2.10;;
19800;SDS011;10060;48.274;12.214;2023-05-07T14:59:23;3.05;;;1.80;;
19800;SDS011;10060;48.274;12.214;2023-05-07T15:02:25;2.58;;;2.20;;
19800;SDS011;10060;48.274;12.214;2023-05-07T15:05:28;2.00;;;1.70;;
19800;SDS011;10060;48.274;12.214;2023-05-07T15:08:30;3.83;;;2.03;;
19800;SDS011;10060;48.274;12.214;2023-05-07T15:11:32;2.97;;;1.73;;
19800;SDS011;10060;48.274;12.214;2023-05-07T15:14:36;2.17;;;1.77;;
19800;SDS011;10060;48.274;12.214;2023-05-07T15:17:38;3.25;;;1.67;;
19800;SDS011;10060;48.274;12.214;2023-05-07T15:20:40;2.70;;;1.70;;
19800;SDS011;10060;48.274;12.214;2023-05-07T15:23:42;2.25;;;1.70;;
19800;SDS011;10060;48.274;12.214;2023-05-07T15:26:44;1.65;;;1.55;;
19800;SDS011;10060;48.274;12.214;2023-05-07T15:29:48;1.80;;;1.55;;
19800;SDS011;10060;48.274;12.214;2023-05-07T15:32:50;1.90;;;1.60;;
19800;SDS011;10060;48.274;12.214;2023-05-07T15:35:52;6.00;;;2.10;;
19800;SDS011;10060;48.274;12.214;2023-05-07T15:38:58;2.83;;;1.77;;
19800;SDS011;10060;48.274;12.214;2023-05-07T15:42:02;2.10;;;1.90;;
19800;SDS011;10060;48.274;12.214;2023-05-07T15:45:07;3.03;;;1.85;;
19800;SDS011;10060;48.274;12.214;2023-05-07T15:48:09;2.28;;;2.08;;
19800;SDS011;10060;48.274;12.214;2023-05-07T15:51:12;2.10;;;1.90;;
19800;SDS011;10060;48.274;12.214;2023-05-07T15:54:14;2.60;;;1.73;;
19800;SDS011;10060;48.274;12.214;2023-05-07T15:57:16;2.03;;;1.73;;
19800;SDS011;10060;48.274;12.214;2023-05-07T16:00:20;2.40;;;1.95;;
19800;SDS011;10060;48.274;12.214;2023-05-07T16:03:22;1.83;;;1.73;;
19800;SDS011;10060;48.274;12.214;2023-05-07T16:06:24;2.20;;;1.70;;
19800;SDS011;10060;48.274;12.214;2023-05-07T16:09:27;2.45;;;1.77;;
19800;SDS011;10060;48.274;12.214;2023-05-07T16:12:29;1.75;;;1.63;;
19800;SDS011;10060;48.274;12.214;2023-05-07T16:15:33;2.80;;;1.88;;
19800;SDS011;10060;48.274;12.214;2023-05-07T16:18:35;2.38;;;1.67;;
19800;SDS011;10060;48.274;12.214;2023-05-07T16:21:37;2.28;;;1.67;;
19800;SDS011;10060;48.274;12.214;2023-05-07T16:24:39;4.65;;;2.20;;
19800;SDS011;10060;48.274;12.214;2023-05-07T16:27:41;4.35;;;1.90;;
19800;SDS011;10060;48.274;12.214;2023-05-07T16:30:44;2.83;;;1.73;;
19800;SDS011;10060;48.274;12.214;2023-05-07T16:33:46;2.45;;;2.22;;
19800;SDS011;10060;48.274;12.214;2023-05-07T16:36:48;3.13;;;2.30;;
19800;SDS011;10060;48.274;12.214;2023-05-07T16:39:51;2.20;;;2.00;;
19800;SDS011;10060;48.274;12.214;2023-05-07T16:42:53;4.78;;;1.90;;
19800;SDS011;10060;48.274;12.214;2023-05-07T16:45:56;2.33;;;1.98;;
19800;SDS011;10060;48.274;12.214;2023-05-07T16:48:58;2.85;;;1.95;;
19800;SDS011;10060;48.274;12.214;2023-05-07T16:52:01;2.28;;;2.08;;
19800;SDS011;10060;48.274;12.214;2023-05-07T16:55:04;2.72;;;1.90;;
19800;SDS011;10060;48.274;12.214;2023-05-07T16:58:07;2.95;;;2.40;;
19800;SDS011;10060;48.274;12.214;2023-05-07T17:01:11;1.88;;;1.77;;
19800;SDS011;10060;48.274;12.214;2023-05-07T17:04:14;3.05;;;2.38;;
19800;SDS011;10060;48.274;12.214;2023-05-07T17:07:16;2.75;;;2.05;;
19800;SDS011;10060;48.274;12.214;2023-05-07T17:10:18;3.58;;;2.40;;
19800;SDS011;10060;48.274;12.214;2023-05-07T17:13:20;5.57;;;2.10;;
19800;SDS011;10060;48.274;12.214;2023-05-07T17:16:24;3.22;;;2.38;;
19800;SDS011;10060;48.274;12.214;2023-05-07T17:19:26;2.72;;;2.35;;
19800;SDS011;10060;48.274;12.214;2023-05-07T17:22:28;3.88;;;2.35;;
19800;SDS011;10060;48.274;12.214;2023-05-07T17:25:30;8.48;;;2.83;;
19800;SDS011;10060;48.274;12.214;2023-05-07T17:28:32;2.80;;;2.30;;
19800;SDS011;10060;48.274;12.214;2023-05-07T17:31:36;2.80;;;2.33;;
19800;SDS011;10060;48.274;12.214;2023-05-07T17:34:38;4.13;;;2.30;;
19800;SDS011;10060;48.274;12.214;2023-05-07T17:37:40;2.72;;;2.20;;
19800;SDS011;10060;48.274;12.214;2023-05-07T17:40:46;2.97;;;2.60;;
19800;SDS011;10060;48.274;12.214;2023-05-07T17:43:48;3.45;;;2.60;;
19800;SDS011;10060;48.274;12.214;2023-05-07T17:46:51;4.68;;;2.80;;
19800;SDS011;10060;48.274;12.214;2023-05-07T17:49:54;3.65;;;2.25;;
19800;SDS011;10060;48.274;12.214;2023-05-07T17:52:56;4.88;;;2.60;;
19800;SDS011;10060;48.274;12.214;2023-05-07T17:55:58;3.05;;;2.10;;
19800;SDS011;10060;48.274;12.214;2023-05-07T17:59:00;3.65;;;2.40;;
19800;SDS011;10060;48.274;12.214;2023-05-07T18:02:03;5.30;;;2.50;;
19800;SDS011;10060;48.274;12.214;2023-05-07T18:05:06;3.95;;;2.85;;
19800;SDS011;10060;48.274;12.214;2023-05-07T18:08:08;3.80;;;3.38;;
19800;SDS011;10060;48.274;12.214;2023-05-07T18:11:10;5.88;;;3.92;;
19800;SDS011;10060;48.274;12.214;2023-05-07T18:14:12;5.70;;;4.15;;